sensor_id;sensor_type;location;lat;lon;timestamp;temperature;humidity
54485;DHT22;45006;56.958;24.166;2022-10-30T00:01:28;22.10;87.90
54485;DHT22;45006;56.958;24.166;2022-10-30T00:03:56;22.20;88.00
54485;DHT22;45006;56.958;24.166;2022-10-30T00:06:23;22.10;87.80
54485;DHT22;45006;56.958;24.166;2022-10-30T00:08:50;22.10;88.10
54485;DHT22;45006;56.958;24.166;2022-10-30T00:11:30;22.10;88.20
54485;DHT22;45006;56.958;24.166;2022-10-30T00:17:14;22.10;88.20
54485;DHT22;45006;56.958;24.166;2022-10-30T00:19:41;22.10;88.10
54485;DHT22;45006;56.958;24.166;2022-10-30T00:22:08;22.20;87.90
54485;DHT22;45006;56.958;24.166;2022-10-30T00:24:35;22.10;87.90
54485;DHT22;45006;56.958;24.166;2022-10-30T00:27:02;22.20;88.00
54485;DHT22;45006;56.958;24.166;2022-10-30T00:29:29;22.10;88.00
54485;DHT22;45006;56.958;24.166;2022-10-30T00:31:56;22.10;88.00
54485;DHT22;45006;56.958;24.166;2022-10-30T00:34:23;22.10;88.30
54485;DHT22;45006;56.958;24.166;2022-10-30T00:36:50;22.20;88.20
54485;DHT22;45006;56.958;24.166;2022-10-30T00:39:16;22.10;88.00
54485;DHT22;45006;56.958;24.166;2022-10-30T00:41:43;22.10;88.00
54485;DHT22;45006;56.958;24.166;2022-10-30T00:47:00;22.10;88.40
54485;DHT22;45006;56.958;24.166;2022-10-30T00:49:34;22.10;88.30
54485;DHT22;45006;56.958;24.166;2022-10-30T00:52:04;22.10;88.40
54485;DHT22;45006;56.958;24.166;2022-10-30T00:54:33;22.10;88.40
54485;DHT22;45006;56.958;24.166;2022-10-30T00:57:02;22.10;88.50
54485;DHT22;45006;56.958;24.166;2022-10-30T00:59:32;22.10;88.50
54485;DHT22;45006;56.958;24.166;2022-10-30T01:02:02;22.10;88.40
54485;DHT22;45006;56.958;24.166;2022-10-30T01:04:31;22.00;88.30
54485;DHT22;45006;56.958;24.166;2022-10-30T01:07:04;22.10;88.30
54485;DHT22;45006;56.958;24.166;2022-10-30T01:09:33;22.10;88.60
54485;DHT22;45006;56.958;24.166;2022-10-30T01:15:23;22.10;88.30
54485;DHT22;45006;56.958;24.166;2022-10-30T01:17:54;22.10;88.20
54485;DHT22;45006;56.958;24.166;2022-10-30T01:29:42;22.10;87.90
54485;DHT22;45006;56.958;24.166;2022-10-30T01:32:44;22.10;88.20
54485;DHT22;45006;56.958;24.166;2022-10-30T01:37:59;22.10;87.90
54485;DHT22;45006;56.958;24.166;2022-10-30T01:40:29;22.10;87.90
54485;DHT22;45006;56.958;24.166;2022-10-30T01:42:56;22.10;88.10
54485;DHT22;45006;56.958;24.166;2022-10-30T01:58:38;22.10;87.70
54485;DHT22;45006;56.958;24.166;2022-10-30T02:01:09;22.10;87.90
54485;DHT22;45006;56.958;24.166;2022-10-30T02:03:37;22.10;87.80
54485;DHT22;45006;56.958;24.166;2022-10-30T02:06:06;22.10;87.90
54485;DHT22;45006;56.958;24.166;2022-10-30T02:08:32;22.10;88.00
54485;DHT22;45006;56.958;24.166;2022-10-30T02:10:59;22.10;87.80
54485;DHT22;45006;56.958;24.166;2022-10-30T02:13:27;22.10;87.80
54485;DHT22;45006;56.958;24.166;2022-10-30T02:15:54;22.10;87.80
54485;DHT22;45006;56.958;24.166;2022-10-30T02:18:36;22.10;87.90
54485;DHT22;45006;56.958;24.166;2022-10-30T02:21:03;22.10;88.10
54485;DHT22;45006;56.958;24.166;2022-10-30T02:23:30;22.10;87.70
54485;DHT22;45006;56.958;24.166;2022-10-30T02:25:57;22.10;87.80
54485;DHT22;45006;56.958;24.166;2022-10-30T02:28:23;22.10;87.80
54485;DHT22;45006;56.958;24.166;2022-10-30T02:30:50;22.10;87.90
54485;DHT22;45006;56.958;24.166;2022-10-30T02:33:17;22.10;87.70
54485;DHT22;45006;56.958;24.166;2022-10-30T02:35:50;22.10;88.10
54485;DHT22;45006;56.958;24.166;2022-10-30T02:38:17;22.10;88.00
54485;DHT22;45006;56.958;24.166;2022-10-30T02:40:44;22.10;87.80
54485;DHT22;45006;56.958;24.166;2022-10-30T02:43:11;22.10;87.90
54485;DHT22;45006;56.958;24.166;2022-10-30T02:45:38;22.10;88.10
54485;DHT22;45006;56.958;24.166;2022-10-30T02:48:05;22.10;88.00
54485;DHT22;45006;56.958;24.166;2022-10-30T02:50:32;22.10;87.80
54485;DHT22;45006;56.958;24.166;2022-10-30T02:52:59;22.10;88.00
54485;DHT22;45006;56.958;24.166;2022-10-30T02:55:27;22.10;87.90
54485;DHT22;45006;56.958;24.166;2022-10-30T02:57:54;22.10;87.90
54485;DHT22;45006;56.958;24.166;2022-10-30T03:00:20;22.10;88.10
54485;DHT22;45006;56.958;24.166;2022-10-30T03:03:15;22.10;88.20
54485;DHT22;45006;56.958;24.166;2022-10-30T03:05:46;22.10;88.20
54485;DHT22;45006;56.958;24.166;2022-10-30T03:11:33;22.10;87.90
54485;DHT22;45006;56.958;24.166;2022-10-30T03:14:13;22.10;87.80
54485;DHT22;45006;56.958;24.166;2022-10-30T03:16:40;22.10;87.70
54485;DHT22;45006;56.958;24.166;2022-10-30T03:19:07;22.10;87.70
54485;DHT22;45006;56.958;24.166;2022-10-30T03:21:35;22.10;87.80
54485;DHT22;45006;56.958;24.166;2022-10-30T03:24:02;22.10;87.80
54485;DHT22;45006;56.958;24.166;2022-10-30T03:43:17;22.10;87.80
54485;DHT22;45006;56.958;24.166;2022-10-30T03:45:49;22.10;88.20
54485;DHT22;45006;56.958;24.166;2022-10-30T03:48:18;22.10;88.00
54485;DHT22;45006;56.958;24.166;2022-10-30T03:50:45;22.00;88.00
54485;DHT22;45006;56.958;24.166;2022-10-30T03:53:12;22.00;87.90
54485;DHT22;45006;56.958;24.166;2022-10-30T03:55:40;22.10;88.10
54485;DHT22;45006;56.958;24.166;2022-10-30T03:58:07;22.00;87.70
54485;DHT22;45006;56.958;24.166;2022-10-30T04:00:34;22.10;87.80
54485;DHT22;45006;56.958;24.166;2022-10-30T04:03:05;22.10;88.00
54485;DHT22;45006;56.958;24.166;2022-10-30T04:05:32;22.10;88.20
54485;DHT22;45006;56.958;24.166;2022-10-30T04:08:05;22.10;87.80
54485;DHT22;45006;56.958;24.166;2022-10-30T04:10:33;22.00;87.60
54485;DHT22;45006;56.958;24.166;2022-10-30T04:13:05;22.10;88.00
54485;DHT22;45006;56.958;24.166;2022-10-30T04:15:33;22.00;87.80
54485;DHT22;45006;56.958;24.166;2022-10-30T04:18:00;22.00;87.90
54485;DHT22;45006;56.958;24.166;2022-10-30T04:20:28;22.00;88.00
54485;DHT22;45006;56.958;24.166;2022-10-30T04:23:01;22.00;87.90
54485;DHT22;45006;56.958;24.166;2022-10-30T04:25:30;22.00;88.00
54485;DHT22;45006;56.958;24.166;2022-10-30T04:27:57;22.00;88.10
54485;DHT22;45006;56.958;24.166;2022-10-30T04:30:25;22.00;87.90
54485;DHT22;45006;56.958;24.166;2022-10-30T04:32:56;22.00;87.70
54485;DHT22;45006;56.958;24.166;2022-10-30T04:35:25;22.00;88.00
54485;DHT22;45006;56.958;24.166;2022-10-30T04:37:57;22.00;87.60
54485;DHT22;45006;56.958;24.166;2022-10-30T04:40:27;22.00;87.80
54485;DHT22;45006;56.958;24.166;2022-10-30T04:42:54;22.00;87.60
54485;DHT22;45006;56.958;24.166;2022-10-30T04:45:22;22.00;87.70
54485;DHT22;45006;56.958;24.166;2022-10-30T04:47:49;22.00;87.60
54485;DHT22;45006;56.958;24.166;2022-10-30T04:50:17;22.00;87.80
54485;DHT22;45006;56.958;24.166;2022-10-30T04:52:44;22.00;87.80
54485;DHT22;45006;56.958;24.166;2022-10-30T04:55:11;22.00;88.00
54485;DHT22;45006;56.958;24.166;2022-10-30T04:57:38;22.00;88.10
54485;DHT22;45006;56.958;24.166;2022-10-30T05:00:07;22.00;87.80
54485;DHT22;45006;56.958;24.166;2022-10-30T05:02:35;22.00;88.30
54485;DHT22;45006;56.958;24.166;2022-10-30T05:05:03;22.00;87.80
54485;DHT22;45006;56.958;24.166;2022-10-30T05:07:30;22.00;87.80
54485;DHT22;45006;56.958;24.166;2022-10-30T05:09:57;22.00;88.10
54485;DHT22;45006;56.958;24.166;2022-10-30T05:12:24;22.00;87.60
54485;DHT22;45006;56.958;24.166;2022-10-30T05:14:51;22.00;87.80
54485;DHT22;45006;56.958;24.166;2022-10-30T05:17:18;22.00;87.80
54485;DHT22;45006;56.958;24.166;2022-10-30T05:19:45;22.00;87.50
54485;DHT22;45006;56.958;24.166;2022-10-30T05:22:12;22.10;87.80
54485;DHT22;45006;56.958;24.166;2022-10-30T05:24:39;22.00;87.30
54485;DHT22;45006;56.958;24.166;2022-10-30T05:27:06;22.00;87.80
54485;DHT22;45006;56.958;24.166;2022-10-30T05:29:32;22.00;87.80
54485;DHT22;45006;56.958;24.166;2022-10-30T05:31:59;22.00;87.80
54485;DHT22;45006;56.958;24.166;2022-10-30T05:34:26;22.00;87.90
54485;DHT22;45006;56.958;24.166;2022-10-30T05:36:53;22.00;87.80
54485;DHT22;45006;56.958;24.166;2022-10-30T05:39:20;22.00;88.20
54485;DHT22;45006;56.958;24.166;2022-10-30T05:41:47;22.00;87.90
54485;DHT22;45006;56.958;24.166;2022-10-30T05:44:14;22.00;87.70
54485;DHT22;45006;56.958;24.166;2022-10-30T05:46:54;22.00;87.70
54485;DHT22;45006;56.958;24.166;2022-10-30T05:49:25;22.00;87.50
54485;DHT22;45006;56.958;24.166;2022-10-30T05:51:52;22.10;87.40
54485;DHT22;45006;56.958;24.166;2022-10-30T05:54:19;22.10;87.40
54485;DHT22;45006;56.958;24.166;2022-10-30T05:56:46;22.00;87.40
54485;DHT22;45006;56.958;24.166;2022-10-30T05:59:13;22.00;87.20
54485;DHT22;45006;56.958;24.166;2022-10-30T06:01:40;22.00;87.40
54485;DHT22;45006;56.958;24.166;2022-10-30T06:04:07;22.10;87.40
54485;DHT22;45006;56.958;24.166;2022-10-30T06:06:34;22.10;87.30
54485;DHT22;45006;56.958;24.166;2022-10-30T06:09:01;22.00;87.40
54485;DHT22;45006;56.958;24.166;2022-10-30T06:11:28;22.00;87.20
54485;DHT22;45006;56.958;24.166;2022-10-30T06:13:54;22.00;87.30
54485;DHT22;45006;56.958;24.166;2022-10-30T06:16:21;22.00;87.50
54485;DHT22;45006;56.958;24.166;2022-10-30T06:18:48;22.10;87.40
54485;DHT22;45006;56.958;24.166;2022-10-30T06:21:15;22.00;87.20
54485;DHT22;45006;56.958;24.166;2022-10-30T06:23:42;22.10;87.40
54485;DHT22;45006;56.958;24.166;2022-10-30T06:26:09;22.00;87.40
54485;DHT22;45006;56.958;24.166;2022-10-30T06:28:36;22.00;87.60
54485;DHT22;45006;56.958;24.166;2022-10-30T06:35:10;22.00;87.50
54485;DHT22;45006;56.958;24.166;2022-10-30T06:37:37;22.10;87.30
54485;DHT22;45006;56.958;24.166;2022-10-30T06:40:35;22.10;87.90
54485;DHT22;45006;56.958;24.166;2022-10-30T06:43:01;22.10;87.30
54485;DHT22;45006;56.958;24.166;2022-10-30T06:45:30;22.00;87.70
54485;DHT22;45006;56.958;24.166;2022-10-30T06:47:58;22.10;87.20
54485;DHT22;45006;56.958;24.166;2022-10-30T06:50:52;22.10;87.50
54485;DHT22;45006;56.958;24.166;2022-10-30T06:53:19;22.10;87.30
54485;DHT22;45006;56.958;24.166;2022-10-30T06:56:02;22.10;87.60
54485;DHT22;45006;56.958;24.166;2022-10-30T06:58:29;22.20;86.90
54485;DHT22;45006;56.958;24.166;2022-10-30T07:00:58;22.30;86.10
54485;DHT22;45006;56.958;24.166;2022-10-30T07:03:26;22.30;86.70
54485;DHT22;45006;56.958;24.166;2022-10-30T07:05:53;22.30;86.40
54485;DHT22;45006;56.958;24.166;2022-10-30T07:12:26;22.40;86.30
54485;DHT22;45006;56.958;24.166;2022-10-30T07:15:18;22.40;86.10
54485;DHT22;45006;56.958;24.166;2022-10-30T07:20:55;22.50;86.10
54485;DHT22;45006;56.958;24.166;2022-10-30T07:23:22;22.50;85.50
54485;DHT22;45006;56.958;24.166;2022-10-30T07:25:49;22.50;85.70
54485;DHT22;45006;56.958;24.166;2022-10-30T07:28:16;22.60;86.00
54485;DHT22;45006;56.958;24.166;2022-10-30T07:30:43;22.60;85.10
54485;DHT22;45006;56.958;24.166;2022-10-30T07:33:10;22.60;85.10
54485;DHT22;45006;56.958;24.166;2022-10-30T07:35:37;22.60;85.60
54485;DHT22;45006;56.958;24.166;2022-10-30T07:38:09;22.50;85.20
54485;DHT22;45006;56.958;24.166;2022-10-30T07:40:36;22.50;85.80
54485;DHT22;45006;56.958;24.166;2022-10-30T07:43:04;22.50;85.20
54485;DHT22;45006;56.958;24.166;2022-10-30T07:45:31;22.50;85.20
54485;DHT22;45006;56.958;24.166;2022-10-30T07:47:58;22.50;85.30
54485;DHT22;45006;56.958;24.166;2022-10-30T07:50:26;22.40;85.40
54485;DHT22;45006;56.958;24.166;2022-10-30T07:52:53;22.40;85.60
54485;DHT22;45006;56.958;24.166;2022-10-30T07:55:20;22.40;85.70
54485;DHT22;45006;56.958;24.166;2022-10-30T07:57:47;22.50;85.70
54485;DHT22;45006;56.958;24.166;2022-10-30T08:00:15;22.40;85.60
54485;DHT22;45006;56.958;24.166;2022-10-30T08:02:43;22.40;86.30
54485;DHT22;45006;56.958;24.166;2022-10-30T08:05:10;22.40;85.80
54485;DHT22;45006;56.958;24.166;2022-10-30T08:07:37;22.40;85.40
54485;DHT22;45006;56.958;24.166;2022-10-30T08:10:06;22.40;85.50
54485;DHT22;45006;56.958;24.166;2022-10-30T08:12:34;22.40;85.40
54485;DHT22;45006;56.958;24.166;2022-10-30T08:15:02;22.40;85.40
54485;DHT22;45006;56.958;24.166;2022-10-30T08:17:29;22.40;85.40
54485;DHT22;45006;56.958;24.166;2022-10-30T08:19:55;22.40;85.40
54485;DHT22;45006;56.958;24.166;2022-10-30T08:22:23;22.40;85.50
54485;DHT22;45006;56.958;24.166;2022-10-30T08:24:50;22.40;85.70
54485;DHT22;45006;56.958;24.166;2022-10-30T08:27:17;22.50;85.50
54485;DHT22;45006;56.958;24.166;2022-10-30T08:29:43;22.40;85.30
54485;DHT22;45006;56.958;24.166;2022-10-30T08:32:10;22.50;85.90
54485;DHT22;45006;56.958;24.166;2022-10-30T08:34:37;22.50;86.00
54485;DHT22;45006;56.958;24.166;2022-10-30T08:37:04;22.50;85.90
54485;DHT22;45006;56.958;24.166;2022-10-30T08:39:33;22.50;85.90
54485;DHT22;45006;56.958;24.166;2022-10-30T08:42:00;22.50;85.60
54485;DHT22;45006;56.958;24.166;2022-10-30T08:44:27;22.50;85.60
54485;DHT22;45006;56.958;24.166;2022-10-30T08:46:53;22.50;85.40
54485;DHT22;45006;56.958;24.166;2022-10-30T08:49:20;22.40;85.40
54485;DHT22;45006;56.958;24.166;2022-10-30T08:51:47;22.40;85.40
54485;DHT22;45006;56.958;24.166;2022-10-30T08:54:14;22.40;85.40
54485;DHT22;45006;56.958;24.166;2022-10-30T08:56:41;22.40;85.40
54485;DHT22;45006;56.958;24.166;2022-10-30T08:59:08;22.40;85.40
54485;DHT22;45006;56.958;24.166;2022-10-30T09:01:35;22.40;85.40
54485;DHT22;45006;56.958;24.166;2022-10-30T09:04:03;22.40;85.40
54485;DHT22;45006;56.958;24.166;2022-10-30T09:06:30;22.40;85.40
54485;DHT22;45006;56.958;24.166;2022-10-30T09:08:57;22.40;85.40
54485;DHT22;45006;56.958;24.166;2022-10-30T09:11:24;22.40;85.30
54485;DHT22;45006;56.958;24.166;2022-10-30T09:13:51;22.50;85.30
54485;DHT22;45006;56.958;24.166;2022-10-30T09:16:18;22.50;85.20
54485;DHT22;45006;56.958;24.166;2022-10-30T09:18:45;22.40;85.20
54485;DHT22;45006;56.958;24.166;2022-10-30T09:21:36;22.50;85.20
54485;DHT22;45006;56.958;24.166;2022-10-30T09:24:03;22.50;85.20
54485;DHT22;45006;56.958;24.166;2022-10-30T09:26:30;22.40;85.20
54485;DHT22;45006;56.958;24.166;2022-10-30T09:29:11;22.40;85.10
54485;DHT22;45006;56.958;24.166;2022-10-30T09:31:38;22.50;85.10
54485;DHT22;45006;56.958;24.166;2022-10-30T09:34:05;22.50;85.10
54485;DHT22;45006;56.958;24.166;2022-10-30T09:36:32;22.40;85.00
54485;DHT22;45006;56.958;24.166;2022-10-30T09:38:59;22.40;85.00
54485;DHT22;45006;56.958;24.166;2022-10-30T09:52:41;22.50;84.90
54485;DHT22;45006;56.958;24.166;2022-10-30T10:01:16;22.50;85.10
54485;DHT22;45006;56.958;24.166;2022-10-30T10:06:24;22.50;84.70
54485;DHT22;45006;56.958;24.166;2022-10-30T10:09:02;22.50;84.70
54485;DHT22;45006;56.958;24.166;2022-10-30T10:11:40;22.50;84.70
54485;DHT22;45006;56.958;24.166;2022-10-30T10:14:29;22.50;84.70
54485;DHT22;45006;56.958;24.166;2022-10-30T10:17:00;22.50;84.60
54485;DHT22;45006;56.958;24.166;2022-10-30T10:19:32;22.50;84.60
54485;DHT22;45006;56.958;24.166;2022-10-30T10:22:04;22.50;84.50
54485;DHT22;45006;56.958;24.166;2022-10-30T10:24:37;22.50;84.50
54485;DHT22;45006;56.958;24.166;2022-10-30T10:33:50;22.50;84.40
54485;DHT22;45006;56.958;24.166;2022-10-30T10:53:09;22.50;84.20
54485;DHT22;45006;56.958;24.166;2022-10-30T10:55:38;22.50;84.90
54485;DHT22;45006;56.958;24.166;2022-10-30T10:58:29;22.50;84.30
54485;DHT22;45006;56.958;24.166;2022-10-30T11:00:57;22.50;84.20
54485;DHT22;45006;56.958;24.166;2022-10-30T11:03:35;22.50;84.20
54485;DHT22;45006;56.958;24.166;2022-10-30T11:06:27;22.50;84.20
54485;DHT22;45006;56.958;24.166;2022-10-30T11:09:22;22.60;84.20
54485;DHT22;45006;56.958;24.166;2022-10-30T11:11:51;22.50;84.10
54485;DHT22;45006;56.958;24.166;2022-10-30T11:14:22;22.60;84.10
54485;DHT22;45006;56.958;24.166;2022-10-30T11:17:02;22.50;84.10
54485;DHT22;45006;56.958;24.166;2022-10-30T11:19:31;22.60;84.20
54485;DHT22;45006;56.958;24.166;2022-10-30T11:21:58;22.60;84.20
54485;DHT22;45006;56.958;24.166;2022-10-30T11:24:35;22.60;84.20
54485;DHT22;45006;56.958;24.166;2022-10-30T11:27:25;22.60;84.20
54485;DHT22;45006;56.958;24.166;2022-10-30T11:29:57;22.50;84.10
54485;DHT22;45006;56.958;24.166;2022-10-30T11:32:29;22.50;84.10
54485;DHT22;45006;56.958;24.166;2022-10-30T11:37:37;22.50;84.10
54485;DHT22;45006;56.958;24.166;2022-10-30T11:42:49;22.50;84.30
54485;DHT22;45006;56.958;24.166;2022-10-30T11:45:23;22.50;84.50
54485;DHT22;45006;56.958;24.166;2022-10-30T11:47:52;22.40;84.60
54485;DHT22;45006;56.958;24.166;2022-10-30T11:50:24;22.40;84.90
54485;DHT22;45006;56.958;24.166;2022-10-30T11:52:55;22.70;83.80
54485;DHT22;45006;56.958;24.166;2022-10-30T11:57:57;23.90;80.30
54485;DHT22;45006;56.958;24.166;2022-10-30T12:00:30;24.50;77.70
54485;DHT22;45006;56.958;24.166;2022-10-30T12:02:58;25.00;75.70
54485;DHT22;45006;56.958;24.166;2022-10-30T12:05:37;25.20;74.90
54485;DHT22;45006;56.958;24.166;2022-10-30T12:13:15;25.50;73.60
54485;DHT22;45006;56.958;24.166;2022-10-30T12:15:44;25.80;72.00
54485;DHT22;45006;56.958;24.166;2022-10-30T12:18:25;26.00;71.60
54485;DHT22;45006;56.958;24.166;2022-10-30T12:20:57;26.10;70.70
54485;DHT22;45006;56.958;24.166;2022-10-30T12:23:26;26.20;70.50
54485;DHT22;45006;56.958;24.166;2022-10-30T12:25:59;25.40;71.40
54485;DHT22;45006;56.958;24.166;2022-10-30T12:28:30;24.40;75.20
54485;DHT22;45006;56.958;24.166;2022-10-30T12:31:18;23.80;77.90
54485;DHT22;45006;56.958;24.166;2022-10-30T12:36:19;23.10;80.70
54485;DHT22;45006;56.958;24.166;2022-10-30T12:41:24;22.90;82.10
54485;DHT22;45006;56.958;24.166;2022-10-30T12:44:18;23.10;81.40
54485;DHT22;45006;56.958;24.166;2022-10-30T12:46:48;23.10;81.60
54485;DHT22;45006;56.958;24.166;2022-10-30T12:49:27;23.00;82.30
54485;DHT22;45006;56.958;24.166;2022-10-30T12:57:21;22.90;82.30
54485;DHT22;45006;56.958;24.166;2022-10-30T13:00:14;22.90;81.90
54485;DHT22;45006;56.958;24.166;2022-10-30T13:02:58;22.90;82.30
54485;DHT22;45006;56.958;24.166;2022-10-30T13:05:46;23.00;82.50
54485;DHT22;45006;56.958;24.166;2022-10-30T13:08:24;23.30;80.90
54485;DHT22;45006;56.958;24.166;2022-10-30T13:11:20;23.30;80.80
54485;DHT22;45006;56.958;24.166;2022-10-30T13:13:51;23.40;79.90
54485;DHT22;45006;56.958;24.166;2022-10-30T13:16:28;23.30;80.90
54485;DHT22;45006;56.958;24.166;2022-10-30T13:19:01;23.20;81.50
54485;DHT22;45006;56.958;24.166;2022-10-30T13:26:43;23.30;81.40
54485;DHT22;45006;56.958;24.166;2022-10-30T13:29:30;23.20;81.90
54485;DHT22;45006;56.958;24.166;2022-10-30T13:34:54;23.40;81.30
54485;DHT22;45006;56.958;24.166;2022-10-30T13:37:49;23.60;80.20
54485;DHT22;45006;56.958;24.166;2022-10-30T13:43:03;23.30;80.60
54485;DHT22;45006;56.958;24.166;2022-10-30T13:45:55;23.70;81.50
54485;DHT22;45006;56.958;24.166;2022-10-30T13:48:49;24.60;77.90
54485;DHT22;45006;56.958;24.166;2022-10-30T13:54:16;25.80;72.70
54485;DHT22;45006;56.958;24.166;2022-10-30T13:56:46;26.20;71.80
54485;DHT22;45006;56.958;24.166;2022-10-30T14:02:10;26.90;69.20
54485;DHT22;45006;56.958;24.166;2022-10-30T14:05:00;27.00;69.30
54485;DHT22;45006;56.958;24.166;2022-10-30T14:07:31;27.10;68.30
54485;DHT22;45006;56.958;24.166;2022-10-30T14:10:07;27.10;68.00
54485;DHT22;45006;56.958;24.166;2022-10-30T14:13:09;27.10;67.90
54485;DHT22;45006;56.958;24.166;2022-10-30T14:15:44;27.20;67.60
54485;DHT22;45006;56.958;24.166;2022-10-30T14:20:46;27.20;67.70
54485;DHT22;45006;56.958;24.166;2022-10-30T14:23:24;27.30;67.30
54485;DHT22;45006;56.958;24.166;2022-10-30T14:28:34;26.90;68.40
54485;DHT22;45006;56.958;24.166;2022-10-30T14:31:05;26.60;69.20
54485;DHT22;45006;56.958;24.166;2022-10-30T14:36:18;26.40;70.60
54485;DHT22;45006;56.958;24.166;2022-10-30T14:41:44;26.90;69.10
54485;DHT22;45006;56.958;24.166;2022-10-30T14:53:09;27.00;68.60
54485;DHT22;45006;56.958;24.166;2022-10-30T14:58:25;26.80;68.60
54485;DHT22;45006;56.958;24.166;2022-10-30T15:01:22;26.70;68.70
54485;DHT22;45006;56.958;24.166;2022-10-30T15:09:50;26.40;69.80
54485;DHT22;45006;56.958;24.166;2022-10-30T15:12:54;26.30;70.10
54485;DHT22;45006;56.958;24.166;2022-10-30T15:15:28;26.40;70.00
54485;DHT22;45006;56.958;24.166;2022-10-30T15:17:58;26.40;69.40
54485;DHT22;45006;56.958;24.166;2022-10-30T15:20:31;26.50;69.20
54485;DHT22;45006;56.958;24.166;2022-10-30T15:23:02;26.60;68.90
54485;DHT22;45006;56.958;24.166;2022-10-30T15:25:36;26.60;68.60
54485;DHT22;45006;56.958;24.166;2022-10-30T15:28:04;26.60;68.80
54485;DHT22;45006;56.958;24.166;2022-10-30T15:30:31;25.90;70.40
54485;DHT22;45006;56.958;24.166;2022-10-30T15:32:58;25.50;72.60
54485;DHT22;45006;56.958;24.166;2022-10-30T15:35:27;25.60;72.10
54485;DHT22;45006;56.958;24.166;2022-10-30T15:38:05;25.80;71.70
54485;DHT22;45006;56.958;24.166;2022-10-30T15:40:33;25.90;71.30
54485;DHT22;45006;56.958;24.166;2022-10-30T15:43:03;26.00;71.00
54485;DHT22;45006;56.958;24.166;2022-10-30T15:45:57;26.00;70.70
54485;DHT22;45006;56.958;24.166;2022-10-30T15:48:27;25.50;71.80
54485;DHT22;45006;56.958;24.166;2022-10-30T15:51:16;24.70;74.60
54485;DHT22;45006;56.958;24.166;2022-10-30T15:53:52;24.40;76.00
54485;DHT22;45006;56.958;24.166;2022-10-30T15:59:05;23.80;78.00
54485;DHT22;45006;56.958;24.166;2022-10-30T16:01:36;23.60;78.90
54485;DHT22;45006;56.958;24.166;2022-10-30T16:04:18;23.50;80.10
54485;DHT22;45006;56.958;24.166;2022-10-30T16:06:52;23.50;80.20
54485;DHT22;45006;56.958;24.166;2022-10-30T16:09:20;23.40;80.40
54485;DHT22;45006;56.958;24.166;2022-10-30T16:11:49;23.30;80.60
54485;DHT22;45006;56.958;24.166;2022-10-30T16:14:23;23.30;80.80
54485;DHT22;45006;56.958;24.166;2022-10-30T16:16:51;23.20;81.00
54485;DHT22;45006;56.958;24.166;2022-10-30T16:19:38;23.20;81.00
54485;DHT22;45006;56.958;24.166;2022-10-30T16:22:17;23.20;81.20
54485;DHT22;45006;56.958;24.166;2022-10-30T16:24:45;23.10;81.00
54485;DHT22;45006;56.958;24.166;2022-10-30T16:27:17;23.10;81.30
54485;DHT22;45006;56.958;24.166;2022-10-30T16:29:54;23.00;81.30
54485;DHT22;45006;56.958;24.166;2022-10-30T16:32:25;23.00;81.30
54485;DHT22;45006;56.958;24.166;2022-10-30T16:34:58;23.00;81.50
54485;DHT22;45006;56.958;24.166;2022-10-30T16:37:36;22.90;81.50
54485;DHT22;45006;56.958;24.166;2022-10-30T16:40:20;22.90;81.50
54485;DHT22;45006;56.958;24.166;2022-10-30T16:42:53;22.80;81.60
54485;DHT22;45006;56.958;24.166;2022-10-30T16:48:06;22.90;81.10
54485;DHT22;45006;56.958;24.166;2022-10-30T16:50:36;23.00;80.90
54485;DHT22;45006;56.958;24.166;2022-10-30T16:53:21;23.30;79.50
54485;DHT22;45006;56.958;24.166;2022-10-30T16:55:50;23.90;77.50
54485;DHT22;45006;56.958;24.166;2022-10-30T16:58:18;24.80;74.00
54485;DHT22;45006;56.958;24.166;2022-10-30T17:00:51;25.40;71.90
54485;DHT22;45006;56.958;24.166;2022-10-30T17:03:23;25.70;70.70
54485;DHT22;45006;56.958;24.166;2022-10-30T17:06:05;25.90;69.90
54485;DHT22;45006;56.958;24.166;2022-10-30T17:08:40;26.00;69.50
54485;DHT22;45006;56.958;24.166;2022-10-30T17:11:19;26.10;69.00
54485;DHT22;45006;56.958;24.166;2022-10-30T17:13:57;26.20;68.50
54485;DHT22;45006;56.958;24.166;2022-10-30T17:16:30;26.20;68.40
54485;DHT22;45006;56.958;24.166;2022-10-30T17:19:00;26.20;68.60
54485;DHT22;45006;56.958;24.166;2022-10-30T17:21:36;26.40;68.00
54485;DHT22;45006;56.958;24.166;2022-10-30T17:24:04;26.40;67.90
54485;DHT22;45006;56.958;24.166;2022-10-30T17:26:36;26.40;67.90
54485;DHT22;45006;56.958;24.166;2022-10-30T17:29:04;26.40;67.70
54485;DHT22;45006;56.958;24.166;2022-10-30T17:36:37;26.40;68.20
54485;DHT22;45006;56.958;24.166;2022-10-30T17:39:05;26.50;68.00
54485;DHT22;45006;56.958;24.166;2022-10-30T17:41:31;26.50;68.40
54485;DHT22;45006;56.958;24.166;2022-10-30T17:43:59;26.20;68.70
54485;DHT22;45006;56.958;24.166;2022-10-30T17:46:27;25.30;72.10
54485;DHT22;45006;56.958;24.166;2022-10-30T17:48:56;24.70;75.10
54485;DHT22;45006;56.958;24.166;2022-10-30T17:51:24;24.40;76.90
54485;DHT22;45006;56.958;24.166;2022-10-30T17:53:51;24.20;77.90
54485;DHT22;45006;56.958;24.166;2022-10-30T17:56:22;24.00;78.70
54485;DHT22;45006;56.958;24.166;2022-10-30T17:58:50;23.80;80.00
54485;DHT22;45006;56.958;24.166;2022-10-30T18:01:31;23.60;80.70
54485;DHT22;45006;56.958;24.166;2022-10-30T18:03:58;23.50;81.30
54485;DHT22;45006;56.958;24.166;2022-10-30T18:06:27;23.40;81.60
54485;DHT22;45006;56.958;24.166;2022-10-30T18:08:54;23.30;81.90
54485;DHT22;45006;56.958;24.166;2022-10-30T18:11:23;23.30;82.20
54485;DHT22;45006;56.958;24.166;2022-10-30T18:13:51;23.20;82.40
54485;DHT22;45006;56.958;24.166;2022-10-30T18:16:18;23.20;82.80
54485;DHT22;45006;56.958;24.166;2022-10-30T18:18:45;23.30;82.90
54485;DHT22;45006;56.958;24.166;2022-10-30T18:21:14;23.70;81.40
54485;DHT22;45006;56.958;24.166;2022-10-30T18:23:41;23.90;81.00
54485;DHT22;45006;56.958;24.166;2022-10-30T18:26:26;24.00;80.20
54485;DHT22;45006;56.958;24.166;2022-10-30T18:28:53;24.10;80.20
54485;DHT22;45006;56.958;24.166;2022-10-30T18:31:22;24.20;79.90
54485;DHT22;45006;56.958;24.166;2022-10-30T18:33:50;24.30;80.20
54485;DHT22;45006;56.958;24.166;2022-10-30T18:36:19;24.30;79.60
54485;DHT22;45006;56.958;24.166;2022-10-30T18:38:47;24.30;79.60
54485;DHT22;45006;56.958;24.166;2022-10-30T18:41:18;24.30;79.80
54485;DHT22;45006;56.958;24.166;2022-10-30T18:43:46;24.20;80.00
54485;DHT22;45006;56.958;24.166;2022-10-30T18:46:14;24.10;80.20
54485;DHT22;45006;56.958;24.166;2022-10-30T18:48:42;24.10;80.40